sensor_id;sensor_type;location;lat;lon;timestamp;P1;durP1;ratioP1;P2;durP2;ratioP2
2129;SDS011;1071;52.544;13.374;2024-01-30T00:01:59;8.50;;;7.25;;
2129;SDS011;1071;52.544;13.374;2024-01-30T00:04:26;9.32;;;6.72;;
2129;SDS011;1071;52.544;13.374;2024-01-30T00:06:53;7.35;;;6.47;;
2129;SDS011;1071;52.544;13.374;2024-01-30T00:09:20;8.75;;;6.80;;
2129;SDS011;1071;52.544;13.374;2024-01-30T00:11:47;9.00;;;6.40;;
2129;SDS011;1071;52.544;13.374;2024-01-30T00:14:14;8.60;;;6.63;;
2129;SDS011;1071;52.544;13.374;2024-01-30T00:16:41;8.93;;;7.57;;
2129;SDS011;1071;52.544;13.374;2024-01-30T00:19:09;9.65;;;7.15;;
2129;SDS011;1071;52.544;13.374;2024-01-30T00:21:36;6.70;;;6.10;;
2129;SDS011;1071;52.544;13.374;2024-01-30T00:24:03;8.88;;;6.57;;
2129;SDS011;1071;52.544;13.374;2024-01-30T00:26:30;8.13;;;5.70;;
2129;SDS011;1071;52.544;13.374;2024-01-30T00:28:57;6.82;;;6.22;;
2129;SDS011;1071;52.544;13.374;2024-01-30T00:31:25;7.35;;;5.93;;
2129;SDS011;1071;52.544;13.374;2024-01-30T00:33:52;7.30;;;5.93;;
2129;SDS011;1071;52.544;13.374;2024-01-30T00:36:20;7.40;;;5.60;;
2129;SDS011;1071;52.544;13.374;2024-01-30T00:38:47;8.40;;;5.85;;
2129;SDS011;1071;52.544;13.374;2024-01-30T00:41:15;9.10;;;6.57;;
2129;SDS011;1071;52.544;13.374;2024-01-30T00:43:44;8.50;;;6.22;;
2129;SDS011;1071;52.544;13.374;2024-01-30T00:46:11;6.75;;;6.05;;
2129;SDS011;1071;52.544;13.374;2024-01-30T00:48:38;9.52;;;6.57;;
2129;SDS011;1071;52.544;13.374;2024-01-30T00:51:05;7.25;;;6.63;;
2129;SDS011;1071;52.544;13.374;2024-01-30T00:53:33;8.20;;;6.78;;
2129;SDS011;1071;52.544;13.374;2024-01-30T00:56:00;7.50;;;6.70;;
2129;SDS011;1071;52.544;13.374;2024-01-30T00:58:28;9.35;;;6.60;;
2129;SDS011;1071;52.544;13.374;2024-01-30T01:00:55;8.85;;;6.50;;
2129;SDS011;1071;52.544;13.374;2024-01-30T01:03:22;7.10;;;5.65;;
2129;SDS011;1071;52.544;13.374;2024-01-30T01:05:49;8.43;;;7.53;;
2129;SDS011;1071;52.544;13.374;2024-01-30T01:08:16;7.95;;;5.82;;
2129;SDS011;1071;52.544;13.374;2024-01-30T01:10:44;8.55;;;6.20;;
2129;SDS011;1071;52.544;13.374;2024-01-30T01:13:11;7.63;;;6.75;;
2129;SDS011;1071;52.544;13.374;2024-01-30T01:15:39;6.97;;;6.25;;
2129;SDS011;1071;52.544;13.374;2024-01-30T01:18:06;8.85;;;7.40;;
2129;SDS011;1071;52.544;13.374;2024-01-30T01:20:33;6.97;;;6.25;;
2129;SDS011;1071;52.544;13.374;2024-01-30T01:23:00;9.82;;;6.70;;
2129;SDS011;1071;52.544;13.374;2024-01-30T01:25:27;8.13;;;6.40;;
2129;SDS011;1071;52.544;13.374;2024-01-30T01:27:56;8.07;;;6.43;;
2129;SDS011;1071;52.544;13.374;2024-01-30T01:30:23;7.32;;;6.35;;
2129;SDS011;1071;52.544;13.374;2024-01-30T01:32:50;9.60;;;7.53;;
2129;SDS011;1071;52.544;13.374;2024-01-30T01:35:21;10.80;;;7.50;;
2129;SDS011;1071;52.544;13.374;2024-01-30T01:37:49;8.90;;;7.03;;
2129;SDS011;1071;52.544;13.374;2024-01-30T01:40:20;8.85;;;7.22;;
2129;SDS011;1071;52.544;13.374;2024-01-30T01:42:49;9.40;;;8.00;;
2129;SDS011;1071;52.544;13.374;2024-01-30T01:45:21;8.80;;;6.65;;
2129;SDS011;1071;52.544;13.374;2024-01-30T01:47:50;8.95;;;7.15;;
2129;SDS011;1071;52.544;13.374;2024-01-30T01:50:17;8.25;;;7.40;;
2129;SDS011;1071;52.544;13.374;2024-01-30T01:52:46;7.50;;;6.75;;
2129;SDS011;1071;52.544;13.374;2024-01-30T01:55:14;9.18;;;7.80;;
2129;SDS011;1071;52.544;13.374;2024-01-30T01:57:47;11.60;;;7.03;;
2129;SDS011;1071;52.544;13.374;2024-01-30T02:00:14;8.65;;;6.82;;
2129;SDS011;1071;52.544;13.374;2024-01-30T02:02:47;10.18;;;7.07;;
2129;SDS011;1071;52.544;13.374;2024-01-30T02:05:16;8.70;;;7.60;;
2129;SDS011;1071;52.544;13.374;2024-01-30T02:07:43;9.50;;;7.15;;
2129;SDS011;1071;52.544;13.374;2024-01-30T02:10:10;7.32;;;6.55;;
2129;SDS011;1071;52.544;13.374;2024-01-30T02:12:38;10.07;;;7.85;;
2129;SDS011;1071;52.544;13.374;2024-01-30T02:15:05;9.95;;;7.40;;
2129;SDS011;1071;52.544;13.374;2024-01-30T02:17:33;10.02;;;6.70;;
2129;SDS011;1071;52.544;13.374;2024-01-30T02:20:01;7.15;;;6.35;;
2129;SDS011;1071;52.544;13.374;2024-01-30T02:22:31;9.60;;;7.43;;
2129;SDS011;1071;52.544;13.374;2024-01-30T02:25:00;8.38;;;7.53;;
2129;SDS011;1071;52.544;13.374;2024-01-30T02:27:27;8.20;;;6.53;;
2129;SDS011;1071;52.544;13.374;2024-01-30T02:29:54;9.18;;;7.57;;
2129;SDS011;1071;52.544;13.374;2024-01-30T02:32:21;6.70;;;5.95;;
2129;SDS011;1071;52.544;13.374;2024-01-30T02:34:48;10.95;;;6.82;;
2129;SDS011;1071;52.544;13.374;2024-01-30T02:37:16;14.40;;;7.95;;
2129;SDS011;1071;52.544;13.374;2024-01-30T02:39:45;12.30;;;7.55;;
2129;SDS011;1071;52.544;13.374;2024-01-30T02:42:12;8.73;;;7.85;;
2129;SDS011;1071;52.544;13.374;2024-01-30T02:44:38;12.27;;;7.60;;
2129;SDS011;1071;52.544;13.374;2024-01-30T02:47:05;9.85;;;7.18;;
2129;SDS011;1071;52.544;13.374;2024-01-30T02:49:32;9.38;;;8.00;;
2129;SDS011;1071;52.544;13.374;2024-01-30T02:51:59;8.43;;;7.10;;
2129;SDS011;1071;52.544;13.374;2024-01-30T02:54:26;9.45;;;7.40;;
2129;SDS011;1071;52.544;13.374;2024-01-30T02:56:54;10.25;;;7.70;;
2129;SDS011;1071;52.544;13.374;2024-01-30T02:59:21;10.93;;;6.70;;
2129;SDS011;1071;52.544;13.374;2024-01-30T03:01:48;8.80;;;6.80;;
2129;SDS011;1071;52.544;13.374;2024-01-30T03:04:15;7.20;;;6.18;;
2129;SDS011;1071;52.544;13.374;2024-01-30T03:06:44;14.18;;;9.00;;
2129;SDS011;1071;52.544;13.374;2024-01-30T03:09:12;8.35;;;7.18;;
2129;SDS011;1071;52.544;13.374;2024-01-30T03:11:40;8.63;;;7.70;;
2129;SDS011;1071;52.544;13.374;2024-01-30T03:14:08;10.35;;;8.27;;
2129;SDS011;1071;52.544;13.374;2024-01-30T03:16:36;12.38;;;8.13;;
2129;SDS011;1071;52.544;13.374;2024-01-30T03:19:05;13.32;;;7.72;;
2129;SDS011;1071;52.544;13.374;2024-01-30T03:21:34;10.10;;;8.20;;
2129;SDS011;1071;52.544;13.374;2024-01-30T03:24:01;13.82;;;8.77;;
2129;SDS011;1071;52.544;13.374;2024-01-30T03:26:28;10.98;;;7.80;;
2129;SDS011;1071;52.544;13.374;2024-01-30T03:28:55;9.68;;;7.20;;
2129;SDS011;1071;52.544;13.374;2024-01-30T03:31:27;8.75;;;7.55;;
2129;SDS011;1071;52.544;13.374;2024-01-30T03:33:54;9.85;;;7.45;;
2129;SDS011;1071;52.544;13.374;2024-01-30T03:36:21;8.15;;;6.57;;
2129;SDS011;1071;52.544;13.374;2024-01-30T03:38:48;13.00;;;7.60;;
2129;SDS011;1071;52.544;13.374;2024-01-30T03:41:15;10.27;;;7.47;;
2129;SDS011;1071;52.544;13.374;2024-01-30T03:43:42;11.45;;;7.28;;
2129;SDS011;1071;52.544;13.374;2024-01-30T03:46:11;15.25;;;7.75;;
2129;SDS011;1071;52.544;13.374;2024-01-30T03:48:40;8.07;;;6.70;;
2129;SDS011;1071;52.544;13.374;2024-01-30T03:51:07;8.95;;;7.32;;
2129;SDS011;1071;52.544;13.374;2024-01-30T03:53:34;10.57;;;8.25;;
2129;SDS011;1071;52.544;13.374;2024-01-30T03:56:01;9.00;;;7.03;;
2129;SDS011;1071;52.544;13.374;2024-01-30T03:58:28;7.22;;;6.50;;
2129;SDS011;1071;52.544;13.374;2024-01-30T04:00:55;8.77;;;7.13;;
2129;SDS011;1071;52.544;13.374;2024-01-30T04:03:22;10.98;;;8.63;;
2129;SDS011;1071;52.544;13.374;2024-01-30T04:05:51;9.82;;;7.82;;
2129;SDS011;1071;52.544;13.374;2024-01-30T04:08:18;10.45;;;7.78;;
2129;SDS011;1071;52.544;13.374;2024-01-30T04:10:45;8.55;;;6.80;;
2129;SDS011;1071;52.544;13.374;2024-01-30T04:13:12;8.48;;;7.00;;
2129;SDS011;1071;52.544;13.374;2024-01-30T04:15:39;10.40;;;8.15;;
2129;SDS011;1071;52.544;13.374;2024-01-30T04:18:06;8.05;;;6.95;;
2129;SDS011;1071;52.544;13.374;2024-01-30T04:20:33;9.15;;;7.30;;
2129;SDS011;1071;52.544;13.374;2024-01-30T04:23:04;10.13;;;7.72;;
2129;SDS011;1071;52.544;13.374;2024-01-30T04:25:31;8.40;;;7.22;;
2129;SDS011;1071;52.544;13.374;2024-01-30T04:27:58;8.85;;;7.53;;
2129;SDS011;1071;52.544;13.374;2024-01-30T04:30:25;8.15;;;7.32;;
2129;SDS011;1071;52.544;13.374;2024-01-30T04:32:52;8.70;;;7.28;;
2129;SDS011;1071;52.544;13.374;2024-01-30T04:35:19;8.95;;;7.63;;
2129;SDS011;1071;52.544;13.374;2024-01-30T04:37:49;9.35;;;7.80;;
2129;SDS011;1071;52.544;13.374;2024-01-30T04:40:20;12.20;;;7.65;;
2129;SDS011;1071;52.544;13.374;2024-01-30T04:42:47;10.00;;;8.23;;
2129;SDS011;1071;52.544;13.374;2024-01-30T04:45:14;9.25;;;6.63;;
2129;SDS011;1071;52.544;13.374;2024-01-30T04:47:41;8.50;;;7.55;;
2129;SDS011;1071;52.544;13.374;2024-01-30T04:50:09;7.90;;;7.10;;
2129;SDS011;1071;52.544;13.374;2024-01-30T04:52:36;9.15;;;7.93;;
2129;SDS011;1071;52.544;13.374;2024-01-30T04:55:03;8.50;;;7.00;;
2129;SDS011;1071;52.544;13.374;2024-01-30T04:57:32;9.77;;;7.70;;
2129;SDS011;1071;52.544;13.374;2024-01-30T04:59:59;9.40;;;8.40;;
2129;SDS011;1071;52.544;13.374;2024-01-30T05:02:26;8.10;;;7.32;;
2129;SDS011;1071;52.544;13.374;2024-01-30T05:04:53;9.68;;;7.50;;
2129;SDS011;1071;52.544;13.374;2024-01-30T05:07:20;7.78;;;6.97;;
2129;SDS011;1071;52.544;13.374;2024-01-30T05:09:47;10.43;;;6.93;;
2129;SDS011;1071;52.544;13.374;2024-01-30T05:12:14;9.50;;;7.95;;
2129;SDS011;1071;52.544;13.374;2024-01-30T05:14:43;8.68;;;7.22;;
2129;SDS011;1071;52.544;13.374;2024-01-30T05:17:10;11.32;;;8.00;;
2129;SDS011;1071;52.544;13.374;2024-01-30T05:19:37;9.10;;;7.50;;
2129;SDS011;1071;52.544;13.374;2024-01-30T05:22:05;10.18;;;7.10;;
2129;SDS011;1071;52.544;13.374;2024-01-30T05:24:32;8.75;;;6.68;;
2129;SDS011;1071;52.544;13.374;2024-01-30T05:26:59;8.27;;;6.93;;
2129;SDS011;1071;52.544;13.374;2024-01-30T05:29:26;10.82;;;8.02;;
2129;SDS011;1071;52.544;13.374;2024-01-30T05:31:55;8.27;;;6.97;;
2129;SDS011;1071;52.544;13.374;2024-01-30T05:34:22;11.48;;;7.07;;
2129;SDS011;1071;52.544;13.374;2024-01-30T05:36:49;8.88;;;6.78;;
2129;SDS011;1071;52.544;13.374;2024-01-30T05:39:16;9.38;;;7.80;;
2129;SDS011;1071;52.544;13.374;2024-01-30T05:41:43;7.78;;;6.90;;
2129;SDS011;1071;52.544;13.374;2024-01-30T05:44:10;7.80;;;6.93;;
2129;SDS011;1071;52.544;13.374;2024-01-30T05:46:37;7.85;;;6.28;;
2129;SDS011;1071;52.544;13.374;2024-01-30T05:49:09;8.73;;;7.13;;
2129;SDS011;1071;52.544;13.374;2024-01-30T05:51:36;9.68;;;7.78;;
2129;SDS011;1071;52.544;13.374;2024-01-30T05:54:03;9.73;;;7.13;;
2129;SDS011;1071;52.544;13.374;2024-01-30T05:56:30;9.45;;;7.70;;
2129;SDS011;1071;52.544;13.374;2024-01-30T05:58:57;8.88;;;6.85;;
2129;SDS011;1071;52.544;13.374;2024-01-30T06:01:24;8.77;;;6.55;;
2129;SDS011;1071;52.544;13.374;2024-01-30T06:03:51;9.98;;;7.40;;
2129;SDS011;1071;52.544;13.374;2024-01-30T06:06:19;13.93;;;7.57;;
2129;SDS011;1071;52.544;13.374;2024-01-30T06:08:50;10.00;;;7.28;;
2129;SDS011;1071;52.544;13.374;2024-01-30T06:11:16;8.93;;;7.40;;
2129;SDS011;1071;52.544;13.374;2024-01-30T06:13:47;8.65;;;7.57;;
2129;SDS011;1071;52.544;13.374;2024-01-30T06:16:14;9.80;;;6.50;;
2129;SDS011;1071;52.544;13.374;2024-01-30T06:18:41;10.13;;;7.50;;
2129;SDS011;1071;52.544;13.374;2024-01-30T06:21:08;11.55;;;8.15;;
2129;SDS011;1071;52.544;13.374;2024-01-30T06:23:36;8.65;;;7.35;;
2129;SDS011;1071;52.544;13.374;2024-01-30T06:26:06;9.80;;;8.32;;
2129;SDS011;1071;52.544;13.374;2024-01-30T06:28:33;9.93;;;7.53;;
2129;SDS011;1071;52.544;13.374;2024-01-30T06:31:00;9.40;;;7.80;;
2129;SDS011;1071;52.544;13.374;2024-01-30T06:33:28;8.48;;;7.43;;
2129;SDS011;1071;52.544;13.374;2024-01-30T06:35:55;8.07;;;7.18;;
2129;SDS011;1071;52.544;13.374;2024-01-30T06:38:22;9.10;;;7.57;;
2129;SDS011;1071;52.544;13.374;2024-01-30T06:40:50;8.85;;;7.60;;
2129;SDS011;1071;52.544;13.374;2024-01-30T06:43:18;11.05;;;8.02;;
2129;SDS011;1071;52.544;13.374;2024-01-30T06:45:46;8.25;;;7.32;;
2129;SDS011;1071;52.544;13.374;2024-01-30T06:48:13;9.25;;;8.13;;
2129;SDS011;1071;52.544;13.374;2024-01-30T06:50:40;8.02;;;7.20;;
2129;SDS011;1071;52.544;13.374;2024-01-30T06:53:07;11.52;;;8.52;;
2129;SDS011;1071;52.544;13.374;2024-01-30T06:55:34;8.20;;;7.35;;
2129;SDS011;1071;52.544;13.374;2024-01-30T06:58:03;10.73;;;8.60;;
2129;SDS011;1071;52.544;13.374;2024-01-30T07:00:30;12.20;;;7.30;;
2129;SDS011;1071;52.544;13.374;2024-01-30T07:03:01;12.60;;;8.43;;
2129;SDS011;1071;52.544;13.374;2024-01-30T07:05:28;12.85;;;8.48;;
2129;SDS011;1071;52.544;13.374;2024-01-30T07:07:55;11.77;;;8.30;;
2129;SDS011;1071;52.544;13.374;2024-01-30T07:10:22;11.32;;;9.68;;
2129;SDS011;1071;52.544;13.374;2024-01-30T07:12:49;12.98;;;7.70;;
2129;SDS011;1071;52.544;13.374;2024-01-30T07:15:18;10.40;;;8.07;;
2129;SDS011;1071;52.544;13.374;2024-01-30T07:17:45;12.02;;;9.00;;
2129;SDS011;1071;52.544;13.374;2024-01-30T07:20:13;10.73;;;8.40;;
2129;SDS011;1071;52.544;13.374;2024-01-30T07:22:40;10.88;;;9.10;;
2129;SDS011;1071;52.544;13.374;2024-01-30T07:25:10;9.25;;;8.18;;
2129;SDS011;1071;52.544;13.374;2024-01-30T07:27:39;11.48;;;7.65;;
2129;SDS011;1071;52.544;13.374;2024-01-30T07:30:06;10.32;;;8.40;;
2129;SDS011;1071;52.544;13.374;2024-01-30T07:32:38;11.27;;;8.82;;
2129;SDS011;1071;52.544;13.374;2024-01-30T07:35:05;10.73;;;8.90;;
2129;SDS011;1071;52.544;13.374;2024-01-30T07:37:33;12.50;;;8.40;;
2129;SDS011;1071;52.544;13.374;2024-01-30T07:40:00;8.98;;;8.05;;
2129;SDS011;1071;52.544;13.374;2024-01-30T07:42:28;9.02;;;7.50;;
2129;SDS011;1071;52.544;13.374;2024-01-30T07:44:55;12.68;;;7.57;;
2129;SDS011;1071;52.544;13.374;2024-01-30T07:47:22;12.48;;;8.88;;
2129;SDS011;1071;52.544;13.374;2024-01-30T07:49:50;13.60;;;10.00;;
2129;SDS011;1071;52.544;13.374;2024-01-30T07:52:19;10.43;;;8.55;;
2129;SDS011;1071;52.544;13.374;2024-01-30T07:54:46;11.10;;;9.55;;
2129;SDS011;1071;52.544;13.374;2024-01-30T07:57:13;10.65;;;8.05;;
2129;SDS011;1071;52.544;13.374;2024-01-30T07:59:41;12.45;;;9.85;;
2129;SDS011;1071;52.544;13.374;2024-01-30T08:02:10;11.10;;;8.35;;
2129;SDS011;1071;52.544;13.374;2024-01-30T08:04:38;11.75;;;9.45;;
2129;SDS011;1071;52.544;13.374;2024-01-30T08:07:09;13.05;;;8.82;;
2129;SDS011;1071;52.544;13.374;2024-01-30T08:09:36;11.90;;;9.82;;
2129;SDS011;1071;52.544;13.374;2024-01-30T08:12:03;15.52;;;9.07;;
2129;SDS011;1071;52.544;13.374;2024-01-30T08:14:31;10.23;;;9.23;;
2129;SDS011;1071;52.544;13.374;2024-01-30T08:17:00;10.45;;;8.68;;
2129;SDS011;1071;52.544;13.374;2024-01-30T08:19:32;14.00;;;8.75;;
2129;SDS011;1071;52.544;13.374;2024-01-30T08:21:59;9.90;;;8.88;;
2129;SDS011;1071;52.544;13.374;2024-01-30T08:24:30;10.05;;;8.43;;
2129;SDS011;1071;52.544;13.374;2024-01-30T08:26:57;11.95;;;8.73;;
2129;SDS011;1071;52.544;13.374;2024-01-30T08:29:26;10.88;;;8.93;;
2129;SDS011;1071;52.544;13.374;2024-01-30T08:31:55;10.68;;;7.90;;
2129;SDS011;1071;52.544;13.374;2024-01-30T08:34:24;12.05;;;9.07;;
2129;SDS011;1071;52.544;13.374;2024-01-30T08:36:51;11.00;;;9.82;;
2129;SDS011;1071;52.544;13.374;2024-01-30T08:39:18;15.13;;;10.60;;
2129;SDS011;1071;52.544;13.374;2024-01-30T08:41:49;11.35;;;9.50;;
2129;SDS011;1071;52.544;13.374;2024-01-30T08:44:16;10.13;;;8.13;;
2129;SDS011;1071;52.544;13.374;2024-01-30T08:46:43;14.45;;;10.10;;
2129;SDS011;1071;52.544;13.374;2024-01-30T08:49:10;11.75;;;9.05;;
2129;SDS011;1071;52.544;13.374;2024-01-30T08:51:38;11.70;;;9.10;;
2129;SDS011;1071;52.544;13.374;2024-01-30T08:54:07;15.38;;;10.15;;
2129;SDS011;1071;52.544;13.374;2024-01-30T08:56:34;11.90;;;8.85;;
2129;SDS011;1071;52.544;13.374;2024-01-30T08:59:03;13.88;;;9.98;;
2129;SDS011;1071;52.544;13.374;2024-01-30T09:01:30;11.05;;;9.85;;
2129;SDS011;1071;52.544;13.374;2024-01-30T09:03:57;12.82;;;9.30;;
2129;SDS011;1071;52.544;13.374;2024-01-30T09:06:24;12.77;;;9.95;;
2129;SDS011;1071;52.544;13.374;2024-01-30T09:08:53;9.98;;;8.30;;
2129;SDS011;1071;52.544;13.374;2024-01-30T09:11:20;10.88;;;9.15;;
2129;SDS011;1071;52.544;13.374;2024-01-30T09:13:47;12.60;;;10.00;;
2129;SDS011;1071;52.544;13.374;2024-01-30T09:16:15;14.88;;;10.63;;
2129;SDS011;1071;52.544;13.374;2024-01-30T09:18:43;11.25;;;10.05;;
2129;SDS011;1071;52.544;13.374;2024-01-30T09:21:10;16.75;;;11.98;;
2129;SDS011;1071;52.544;13.374;2024-01-30T09:23:37;12.27;;;10.98;;
2129;SDS011;1071;52.544;13.374;2024-01-30T09:26:04;12.32;;;10.18;;
2129;SDS011;1071;52.544;13.374;2024-01-30T09:28:31;10.48;;;9.38;;
2129;SDS011;1071;52.544;13.374;2024-01-30T09:31:00;12.07;;;9.30;;
2129;SDS011;1071;52.544;13.374;2024-01-30T09:33:35;9.45;;;7.63;;
2129;SDS011;1071;52.544;13.374;2024-01-30T09:36:02;20.40;;;9.02;;
2129;SDS011;1071;52.544;13.374;2024-01-30T09:38:32;15.77;;;9.20;;
2129;SDS011;1071;52.544;13.374;2024-01-30T09:41:00;17.75;;;13.02;;
2129;SDS011;1071;52.544;13.374;2024-01-30T09:43:32;10.52;;;9.13;;
2129;SDS011;1071;52.544;13.374;2024-01-30T09:46:00;10.45;;;8.50;;
2129;SDS011;1071;52.544;13.374;2024-01-30T09:48:29;9.80;;;8.57;;
2129;SDS011;1071;52.544;13.374;2024-01-30T09:50:58;11.88;;;8.35;;
2129;SDS011;1071;52.544;13.374;2024-01-30T09:53:25;9.75;;;8.30;;
2129;SDS011;1071;52.544;13.374;2024-01-30T09:55:53;8.93;;;7.60;;
2129;SDS011;1071;52.544;13.374;2024-01-30T09:58:20;10.85;;;8.32;;
2129;SDS011;1071;52.544;13.374;2024-01-30T10:00:48;11.50;;;7.22;;
2129;SDS011;1071;52.544;13.374;2024-01-30T10:03:16;11.98;;;7.68;;
2129;SDS011;1071;52.544;13.374;2024-01-30T10:05:44;9.82;;;7.95;;
2129;SDS011;1071;52.544;13.374;2024-01-30T10:08:18;11.10;;;9.18;;
2129;SDS011;1071;52.544;13.374;2024-01-30T10:10:47;10.20;;;7.97;;
2129;SDS011;1071;52.544;13.374;2024-01-30T10:13:14;9.93;;;6.90;;
2129;SDS011;1071;52.544;13.374;2024-01-30T10:15:42;11.02;;;7.90;;
2129;SDS011;1071;52.544;13.374;2024-01-30T10:18:10;9.52;;;8.30;;
2129;SDS011;1071;52.544;13.374;2024-01-30T10:20:42;15.38;;;7.22;;
2129;SDS011;1071;52.544;13.374;2024-01-30T10:23:09;9.35;;;7.80;;
2129;SDS011;1071;52.544;13.374;2024-01-30T10:25:37;8.30;;;7.00;;
2129;SDS011;1071;52.544;13.374;2024-01-30T10:28:06;7.32;;;6.47;;
2129;SDS011;1071;52.544;13.374;2024-01-30T10:30:33;7.50;;;6.70;;
2129;SDS011;1071;52.544;13.374;2024-01-30T10:33:00;9.85;;;7.50;;
2129;SDS011;1071;52.544;13.374;2024-01-30T10:35:33;9.43;;;7.30;;
2129;SDS011;1071;52.544;13.374;2024-01-30T10:38:01;11.00;;;7.20;;
2129;SDS011;1071;52.544;13.374;2024-01-30T10:40:28;7.25;;;6.55;;
2129;SDS011;1071;52.544;13.374;2024-01-30T10:43:00;13.00;;;8.38;;
2129;SDS011;1071;52.544;13.374;2024-01-30T10:45:28;12.68;;;7.10;;
2129;SDS011;1071;52.544;13.374;2024-01-30T10:47:56;8.40;;;6.55;;
2129;SDS011;1071;52.544;13.374;2024-01-30T10:50:26;10.63;;;7.13;;
2129;SDS011;1071;52.544;13.374;2024-01-30T10:52:54;7.90;;;6.38;;
2129;SDS011;1071;52.544;13.374;2024-01-30T10:55:22;9.98;;;6.75;;
2129;SDS011;1071;52.544;13.374;2024-01-30T10:57:54;7.47;;;6.65;;
2129;SDS011;1071;52.544;13.374;2024-01-30T11:00:23;7.68;;;6.82;;
2129;SDS011;1071;52.544;13.374;2024-01-30T11:02:53;17.15;;;8.18;;
2129;SDS011;1071;52.544;13.374;2024-01-30T11:05:24;9.30;;;7.22;;
2129;SDS011;1071;52.544;13.374;2024-01-30T11:07:52;8.02;;;6.43;;
2129;SDS011;1071;52.544;13.374;2024-01-30T11:10:19;7.68;;;6.65;;
2129;SDS011;1071;52.544;13.374;2024-01-30T11:12:46;8.68;;;7.43;;
2129;SDS011;1071;52.544;13.374;2024-01-30T11:15:16;7.93;;;6.85;;
2129;SDS011;1071;52.544;13.374;2024-01-30T11:17:45;10.32;;;7.80;;
2129;SDS011;1071;52.544;13.374;2024-01-30T11:20:19;11.68;;;9.40;;
2129;SDS011;1071;52.544;13.374;2024-01-30T11:22:47;9.68;;;7.95;;
2129;SDS011;1071;52.544;13.374;2024-01-30T11:25:17;11.57;;;8.23;;
2129;SDS011;1071;52.544;13.374;2024-01-30T11:27:46;8.50;;;7.60;;
2129;SDS011;1071;52.544;13.374;2024-01-30T11:30:23;9.45;;;6.65;;
2129;SDS011;1071;52.544;13.374;2024-01-30T11:33:02;9.38;;;7.15;;
2129;SDS011;1071;52.544;13.374;2024-01-30T11:35:32;8.05;;;7.00;;
2129;SDS011;1071;52.544;13.374;2024-01-30T11:38:04;9.50;;;7.28;;
2129;SDS011;1071;52.544;13.374;2024-01-30T11:40:32;8.07;;;7.32;;
2129;SDS011;1071;52.544;13.374;2024-01-30T11:43:00;7.90;;;6.47;;
2129;SDS011;1071;52.544;13.374;2024-01-30T11:45:30;9.07;;;7.93;;
2129;SDS011;1071;52.544;13.374;2024-01-30T11:47:57;12.57;;;7.80;;
2129;SDS011;1071;52.544;13.374;2024-01-30T11:50:29;7.68;;;6.15;;
2129;SDS011;1071;52.544;13.374;2024-01-30T11:52:56;8.55;;;6.88;;
2129;SDS011;1071;52.544;13.374;2024-01-30T11:55:25;10.60;;;8.00;;
2129;SDS011;1071;52.544;13.374;2024-01-30T11:57:54;12.98;;;7.30;;
2129;SDS011;1071;52.544;13.374;2024-01-30T12:00:21;9.05;;;6.22;;
2129;SDS011;1071;52.544;13.374;2024-01-30T12:02:49;13.07;;;8.02;;
2129;SDS011;1071;52.544;13.374;2024-01-30T12:05:16;8.88;;;6.85;;
2129;SDS011;1071;52.544;13.374;2024-01-30T12:07:47;7.95;;;6.20;;
2129;SDS011;1071;52.544;13.374;2024-01-30T12:10:14;7.35;;;6.65;;
2129;SDS011;1071;52.544;13.374;2024-01-30T12:12:41;7.22;;;6.53;;
2129;SDS011;1071;52.544;13.374;2024-01-30T12:15:10;12.27;;;7.13;;
2129;SDS011;1071;52.544;13.374;2024-01-30T12:17:37;10.50;;;7.63;;
2129;SDS011;1071;52.544;13.374;2024-01-30T12:20:04;16.00;;;10.30;;
2129;SDS011;1071;52.544;13.374;2024-01-30T12:22:38;12.15;;;9.65;;
2129;SDS011;1071;52.544;13.374;2024-01-30T12:25:11;13.73;;;8.52;;
2129;SDS011;1071;52.544;13.374;2024-01-30T12:27:39;9.45;;;8.13;;
2129;SDS011;1071;52.544;13.374;2024-01-30T12:30:08;9.50;;;6.63;;
2129;SDS011;1071;52.544;13.374;2024-01-30T12:32:37;7.45;;;6.57;;
2129;SDS011;1071;52.544;13.374;2024-01-30T12:35:06;10.80;;;7.00;;
2129;SDS011;1071;52.544;13.374;2024-01-30T12:37:34;8.32;;;7.53;;
2129;SDS011;1071;52.544;13.374;2024-01-30T12:40:01;10.63;;;7.20;;
2129;SDS011;1071;52.544;13.374;2024-01-30T12:42:30;10.07;;;6.97;;
2129;SDS011;1071;52.544;13.374;2024-01-30T12:44:57;11.77;;;7.90;;
2129;SDS011;1071;52.544;13.374;2024-01-30T12:47:25;9.30;;;7.88;;
2129;SDS011;1071;52.544;13.374;2024-01-30T12:49:52;14.38;;;8.73;;
2129;SDS011;1071;52.544;13.374;2024-01-30T12:52:19;12.20;;;8.82;;
2129;SDS011;1071;52.544;13.374;2024-01-30T12:54:47;10.98;;;8.40;;
2129;SDS011;1071;52.544;13.374;2024-01-30T12:57:19;9.50;;;7.95;;
2129;SDS011;1071;52.544;13.374;2024-01-30T12:59:50;10.18;;;7.43;;
2129;SDS011;1071;52.544;13.374;2024-01-30T13:02:17;7.93;;;6.45;;
2129;SDS011;1071;52.544;13.374;2024-01-30T13:04:44;8.10;;;6.82;;
2129;SDS011;1071;52.544;13.374;2024-01-30T13:07:11;8.80;;;7.30;;
2129;SDS011;1071;52.544;13.374;2024-01-30T13:09:38;12.90;;;9.63;;
2129;SDS011;1071;52.544;13.374;2024-01-30T13:12:06;11.70;;;8.35;;
2129;SDS011;1071;52.544;13.374;2024-01-30T13:14:33;11.13;;;8.68;;
2129;SDS011;1071;52.544;13.374;2024-01-30T13:17:01;9.38;;;7.88;;
2129;SDS011;1071;52.544;13.374;2024-01-30T13:19:28;12.98;;;10.40;;
2129;SDS011;1071;52.544;13.374;2024-01-30T13:21:55;12.80;;;8.68;;
2129;SDS011;1071;52.544;13.374;2024-01-30T13:24:22;9.98;;;7.07;;
2129;SDS011;1071;52.544;13.374;2024-01-30T13:26:49;12.27;;;7.38;;
2129;SDS011;1071;52.544;13.374;2024-01-30T13:29:18;8.55;;;6.72;;
2129;SDS011;1071;52.544;13.374;2024-01-30T13:31:47;7.70;;;6.90;;
2129;SDS011;1071;52.544;13.374;2024-01-30T13:34:15;7.85;;;7.07;;
2129;SDS011;1071;52.544;13.374;2024-01-30T13:36:42;7.00;;;6.28;;
2129;SDS011;1071;52.544;13.374;2024-01-30T13:39:13;9.05;;;7.35;;
2129;SDS011;1071;52.544;13.374;2024-01-30T13:41:41;10.57;;;7.97;;
2129;SDS011;1071;52.544;13.374;2024-01-30T13:44:08;8.10;;;6.63;;
2129;SDS011;1071;52.544;13.374;2024-01-30T13:46:35;10.27;;;7.05;;
2129;SDS011;1071;52.544;13.374;2024-01-30T13:49:04;8.55;;;6.68;;
2129;SDS011;1071;52.544;13.374;2024-01-30T13:51:33;7.40;;;6.70;;
2129;SDS011;1071;52.544;13.374;2024-01-30T13:54:06;13.45;;;9.30;;
2129;SDS011;1071;52.544;13.374;2024-01-30T13:56:33;10.40;;;8.43;;
2129;SDS011;1071;52.544;13.374;2024-01-30T13:59:01;9.77;;;8.25;;
2129;SDS011;1071;52.544;13.374;2024-01-30T14:01:30;11.48;;;9.02;;
2129;SDS011;1071;52.544;13.374;2024-01-30T14:03:57;14.93;;;8.52;;
2129;SDS011;1071;52.544;13.374;2024-01-30T14:06:24;8.60;;;7.70;;
2129;SDS011;1071;52.544;13.374;2024-01-30T14:08:52;10.70;;;7.57;;
2129;SDS011;1071;52.544;13.374;2024-01-30T14:11:20;8.75;;;6.70;;
2129;SDS011;1071;52.544;13.374;2024-01-30T14:13:47;8.98;;;7.97;;
2129;SDS011;1071;52.544;13.374;2024-01-30T14:16:14;8.90;;;7.88;;
2129;SDS011;1071;52.544;13.374;2024-01-30T14:18:41;9.13;;;7.18;;
2129;SDS011;1071;52.544;13.374;2024-01-30T14:21:08;10.75;;;7.53;;
2129;SDS011;1071;52.544;13.374;2024-01-30T14:23:37;10.85;;;7.57;;
2129;SDS011;1071;52.544;13.374;2024-01-30T14:26:06;7.13;;;6.43;;
2129;SDS011;1071;52.544;13.374;2024-01-30T14:28:32;7.35;;;6.55;;
2129;SDS011;1071;52.544;13.374;2024-01-30T14:30:59;7.65;;;6.95;;
2129;SDS011;1071;52.544;13.374;2024-01-30T14:33:27;9.25;;;6.97;;
2129;SDS011;1071;52.544;13.374;2024-01-30T14:35:54;7.45;;;6.68;;
2129;SDS011;1071;52.544;13.374;2024-01-30T14:38:23;8.45;;;7.65;;
2129;SDS011;1071;52.544;13.374;2024-01-30T14:40:51;9.57;;;7.20;;
2129;SDS011;1071;52.544;13.374;2024-01-30T14:43:19;7.60;;;6.57;;
2129;SDS011;1071;52.544;13.374;2024-01-30T14:45:46;8.55;;;7.00;;
2129;SDS011;1071;52.544;13.374;2024-01-30T14:48:14;7.30;;;6.60;;
2129;SDS011;1071;52.544;13.374;2024-01-30T14:50:41;7.50;;;6.63;;
2129;SDS011;1071;52.544;13.374;2024-01-30T14:53:08;9.00;;;6.88;;
2129;SDS011;1071;52.544;13.374;2024-01-30T14:55:35;9.90;;;7.65;;
2129;SDS011;1071;52.544;13.374;2024-01-30T14:58:02;8.80;;;7.90;;
2129;SDS011;1071;52.544;13.374;2024-01-30T15:00:31;8.05;;;7.20;;